Time;durP1;ratioP1;P1;durP2;ratioP2;P2;SDS_P1;SDS_P2;PMS_P1;PMS_P2;Temp;Humidity;BMP_temperature;BMP_pressure;BME280_temperature;BME280_humidity;BME280_pressure;Samples;Min_cycle;Max_cycle;Signal;HPM_P1;HPM_P2
2022/12/09 00:01:06;;;;;;;28.00;13.63;;;;;;;8.70;100.00;96940.78;5063835;28;20048;-60
2022/12/09 00:03:33;;;;;;;26.92;13.35;;;;;;;8.59;100.00;96949.97;5066883;28;20064;-60
2022/12/09 00:06:25;;;;;;;27.08;14.50;;;;;;;8.70;100.00;96951.00;5065848;28;20512;-60
2022/12/09 00:08:53;;;;;;;26.38;13.60;;;;;;;7.90;100.00;96862.41;5067383;28;20053;-59
2022/12/09 00:11:21;;;;;;;27.27;13.07;;;;;;;8.53;100.00;96962.47;5067329;28;20084;-59
2022/12/09 00:13:49;;;;;;;28.35;13.27;;;;;;;8.60;100.00;96946.84;5065800;28;20297;-60
2022/12/09 00:16:17;;;;;;;27.27;13.65;;;;;;;8.43;100.00;96929.88;5067301;28;20101;-60
2022/12/09 00:18:44;;;;;;;28.15;13.50;;;;;;;8.58;100.00;96959.44;5067068;28;20053;-60
2022/12/09 00:21:19;;;;;;;26.30;13.65;;;;;;;8.64;100.00;96947.75;5067293;28;20044;-60
2022/12/09 00:23:47;;;;;;;28.48;13.27;;;;;;;8.48;100.00;96943.41;5067791;28;20061;-61
2022/12/09 00:26:15;;;;;;;27.40;13.93;;;;;;;8.58;100.00;96953.91;5066905;28;20511;-60
2022/12/09 00:28:43;;;;;;;32.00;16.40;;;;;;;8.65;100.00;96959.56;5066685;28;20177;-59
2022/12/09 00:31:13;;;;;;;41.05;18.88;;;;;;;8.62;100.00;96949.25;5067139;28;20048;-59
2022/12/09 00:33:40;;;;;;;35.22;19.85;;;;;;;8.68;100.00;96947.81;5066989;28;20052;-59
2022/12/09 00:36:13;;;;;;;48.22;21.67;;;;;;;8.55;100.00;96955.41;5067391;28;20064;-59
2022/12/09 00:38:40;;;;;;;40.35;19.40;;;;;;;8.39;100.00;96935.34;5067064;28;20058;-60
2022/12/09 00:41:07;;;;;;;33.47;17.13;;;;;;;8.67;100.00;96947.03;5066806;28;20609;-59
2022/12/09 00:43:33;;;;;;;32.95;16.77;;;;;;;8.73;100.00;96953.06;5065734;28;20049;-59
2022/12/09 00:46:00;;;;;;;29.90;15.50;;;;;;;8.39;100.00;96891.19;5067225;28;20140;-60
2022/12/09 00:48:27;;;;;;;31.83;15.32;;;;;;;8.53;100.00;96956.94;5066295;28;20231;-59
2022/12/09 00:50:55;;;;;;;27.80;13.75;;;;;;;7.94;100.00;96953.47;5066625;28;20044;-60
2022/12/09 00:53:22;;;;;;;28.85;14.15;;;;;;;7.53;100.00;96930.78;5066458;28;20079;-58
2022/12/09 00:55:48;;;;;;;27.73;12.88;;;;;;;7.63;100.00;96963.31;5066475;28;20051;-58
2022/12/09 00:58:16;;;;;;;30.25;14.55;;;;;;;7.78;100.00;96963.72;5066401;28;20061;-59
2022/12/09 01:00:42;;;;;;;26.40;13.48;;;;;;;7.77;100.00;96937.28;5066412;28;20520;-58
2022/12/09 01:03:14;;;;;;;28.33;13.75;;;;;;;8.03;100.00;96959.63;5064843;28;20055;-58
2022/12/09 01:05:42;;;;;;;26.10;12.25;;;;;;;8.14;100.00;96949.66;5064930;28;20131;-60
2022/12/09 01:08:10;;;;;;;26.02;12.63;;;;;;;7.99;100.00;96909.06;5064727;28;20064;-59
2022/12/09 01:10:39;;;;;;;25.88;12.00;;;;;;;8.21;100.00;96944.31;5066430;28;20056;-59
2022/12/09 01:13:06;;;;;;;24.80;12.30;;;;;;;7.84;100.00;96874.06;5064846;28;20349;-59
2022/12/09 01:15:33;;;;;;;30.52;13.32;;;;;;;8.39;100.00;96945.56;5065727;28;20067;-59
2022/12/09 01:18:00;;;;;;;26.52;12.57;;;;;;;8.53;100.00;96951.41;5064734;28;20060;-60
2022/12/09 01:20:27;;;;;;;26.48;12.38;;;;;;;8.56;100.00;96958.97;5066516;28;20105;-59
2022/12/09 01:22:54;;;;;;;25.35;12.18;;;;;;;8.60;100.00;96951.59;5066021;28;20470;-59
2022/12/09 01:25:21;;;;;;;23.83;12.45;;;;;;;8.55;100.00;96933.31;5064499;28;20140;-60
2022/12/09 01:27:48;;;;;;;28.13;12.98;;;;;;;8.31;100.00;96894.13;5065894;28;20080;-59
2022/12/09 01:30:14;;;;;;;24.23;13.05;;;;;;;8.57;100.00;96935.72;5065670;28;20110;-59
2022/12/09 01:32:42;;;;;;;23.45;11.82;;;;;;;8.52;100.00;96928.53;5065602;28;20493;-59
2022/12/09 01:35:09;;;;;;;21.20;12.30;;;;;;;8.81;100.00;96949.28;5064784;28;20541;-59
2022/12/09 01:37:37;;;;;;;28.20;13.02;;;;;;;8.86;100.00;96949.81;5066223;28;20132;-59
2022/12/09 01:40:07;;;;;;;25.25;13.07;;;;;;;8.85;100.00;96945.44;5065880;28;20060;-59
2022/12/09 01:42:35;;;;;;;28.90;12.43;;;;;;;8.75;100.00;96937.75;5066197;28;20044;-59
2022/12/09 01:45:29;;;;;;;28.98;13.27;;;;;;;8.90;100.00;96950.69;5065823;28;20440;-60
2022/12/09 01:48:07;;;;;;;29.67;14.20;;;;;;;8.94;100.00;96957.09;5064301;28;20430;-59
2022/12/09 01:50:36;;;;;;;21.80;11.98;;;;;;;9.04;100.00;96964.81;5065664;28;20087;-58
2022/12/09 01:53:04;;;;;;;25.98;12.20;;;;;;;8.97;100.00;96950.84;5063737;28;20048;-59
2022/12/09 01:55:31;;;;;;;29.88;14.60;;;;;;;8.38;100.00;96877.72;5065229;28;20056;-59
2022/12/09 01:57:58;;;;;;;29.13;15.35;;;;;;;8.95;100.00;96942.13;5065101;28;20080;-58
2022/12/09 02:00:25;;;;;;;32.72;15.98;;;;;;;8.31;100.00;96877.56;5064865;28;20578;-59
2022/12/09 02:02:54;;;;;;;30.92;15.95;;;;;;;8.82;100.00;96948.16;5063773;28;20136;-59
2022/12/09 02:05:25;;;;;;;31.77;14.88;;;;;;;8.42;100.00;96878.63;5065162;28;20055;-59
2022/12/09 02:07:52;;;;;;;34.40;15.60;;;;;;;8.65;100.00;96909.88;5065103;28;20088;-59
2022/12/09 02:10:20;;;;;;;32.42;16.42;;;;;;;8.33;100.00;96858.69;5065126;28;20553;-59
2022/12/09 02:13:13;;;;;;;30.02;15.80;;;;;;;8.91;100.00;96945.97;5063582;28;20185;-59
2022/12/09 02:15:44;;;;;;;37.53;16.63;;;;;;;8.93;100.00;96949.19;5064634;28;20527;-59
2022/12/09 02:18:28;;;;;;;30.23;15.25;;;;;;;8.90;100.00;96960.94;5064637;28;20079;-59
2022/12/09 02:21:07;;;;;;;30.02;15.70;;;;;;;8.91;100.00;96945.97;5064839;28;20113;-60
2022/12/09 02:23:36;;;;;;;27.77;15.93;;;;;;;8.93;100.00;96944.44;5065470;28;20466;-59
2022/12/09 02:26:42;;;;;;;35.78;16.08;;;;;;;8.60;100.00;96879.81;5064692;28;20143;-59
2022/12/09 02:29:36;;;;;;;35.78;16.50;;;;;;;8.89;100.00;96926.19;5064331;28;20070;-59
2022/12/09 02:32:18;;;;;;;31.13;16.33;;;;;;;8.89;100.00;96926.19;5064636;28;20091;-59
2022/12/09 02:34:54;;;;;;;35.50;17.40;;;;;;;8.88;100.00;96924.59;5065230;28;20083;-59
2022/12/09 02:37:30;;;;;;;33.60;16.52;;;;;;;8.87;100.00;96934.03;5064387;28;20127;-59
2022/12/09 02:40:00;;;;;;;41.80;17.48;;;;;;;8.70;100.00;96907.66;5064954;28;20052;-59
2022/12/09 02:42:33;;;;;;;45.83;19.13;;;;;;;8.83;100.00;96933.16;5064567;28;20109;-59
2022/12/09 02:45:03;;;;;;;35.70;16.70;;;;;;;8.72;100.00;96932.13;5064199;28;20523;-59
2022/12/09 02:47:34;;;;;;;31.55;15.90;;;;;;;8.84;100.00;96934.75;5064261;28;20105;-58
2022/12/09 02:50:06;;;;;;;30.83;16.35;;;;;;;8.85;100.00;96939.91;5064524;28;20526;-59
2022/12/09 02:52:35;;;;;;;33.90;16.13;;;;;;;8.90;100.00;96949.88;5064037;28;20113;-59
2022/12/09 02:55:08;;;;;;;34.97;15.50;;;;;;;8.47;100.00;96886.63;5064447;28;20978;-59
2022/12/09 02:57:37;;;;;;;81.55;34.58;;;;;;;8.49;100.00;96873.22;5064650;28;20052;-59
2022/12/09 03:00:05;;;;;;;77.20;32.45;;;;;;;8.74;100.00;96910.50;5064498;28;20068;-59
2022/12/09 03:02:42;;;;;;;34.80;17.55;;;;;;;8.87;100.00;96934.03;5062798;28;20067;-58
2022/12/09 03:05:24;;;;;;;33.78;14.55;;;;;;;8.85;100.00;96941.91;5064289;28;20519;-57
2022/12/09 03:07:54;;;;;;;32.97;15.18;;;;;;;8.85;100.00;96952.94;5062871;28;20057;-58
2022/12/09 03:10:31;;;;;;;34.90;15.25;;;;;;;8.60;100.00;96941.34;5064083;28;20045;-58
2022/12/09 03:13:09;;;;;;;34.42;15.38;;;;;;;8.29;100.00;96879.88;5064210;28;20056;-59
2022/12/09 03:15:40;;;;;;;37.78;15.18;;;;;;;8.75;100.00;96943.25;5064296;28;20572;-60
2022/12/09 03:18:12;;;;;;;36.75;15.25;;;;;;;8.00;100.00;96880.38;5062549;28;20599;-59
2022/12/09 03:20:40;;;;;;;35.60;14.68;;;;;;;8.20;100.00;96948.22;5064256;28;20083;-59
2022/12/09 03:23:09;;;;;;;44.28;14.85;;;;;;;8.33;100.00;96953.31;5064027;28;20041;-59
2022/12/09 03:25:47;;;;;;;36.17;14.30;;;;;;;8.41;100.00;96955.06;5064130;28;20055;-60
2022/12/09 03:28:23;;;;;;;38.90;13.68;;;;;;;8.42;100.00;96953.13;5062312;28;20055;-59
2022/12/09 03:30:52;;;;;;;38.55;14.02;;;;;;;8.38;100.00;96963.28;5064365;28;20066;-59
2022/12/09 03:33:21;;;;;;;38.88;14.63;;;;;;;8.25;100.00;96945.22;5062564;28;20083;-59
2022/12/09 03:35:52;;;;;;;31.95;13.13;;;;;;;8.30;100.00;96969.81;5064139;28;20053;-59
2022/12/09 03:38:22;;;;;;;31.42;13.05;;;;;;;8.26;100.00;96963.38;5063021;28;20055;-60
2022/12/09 03:40:53;;;;;;;36.53;13.93;;;;;;;8.22;100.00;96968.78;5063704;28;20075;-59
2022/12/09 03:43:33;;;;;;;36.25;14.60;;;;;;;8.12;100.00;96968.53;5063941;28;20052;-60
2022/12/09 03:46:00;;;;;;;38.25;12.68;;;;;;;8.04;100.00;97000.66;5064180;28;20059;-59
2022/12/09 03:48:28;;;;;;;38.00;12.05;;;;;;;8.16;100.00;96963.88;5062459;28;20064;-59
2022/12/09 03:51:04;;;;;;;43.28;13.20;;;;;;;8.14;100.00;96977.25;5063807;28;20068;-60
2022/12/09 03:53:40;;;;;;;36.22;13.50;;;;;;;8.06;100.00;96975.47;5063714;28;20330;-59
2022/12/09 03:56:18;;;;;;;44.95;12.48;;;;;;;8.03;100.00;96970.66;5064103;28;20049;-59
2022/12/09 03:58:47;;;;;;;30.98;12.48;;;;;;;7.47;100.00;96915.66;5063703;28;20443;-60
2022/12/09 04:01:15;;;;;;;28.30;11.23;;;;;;;7.54;100.00;96921.34;5063672;28;20053;-59
2022/12/09 04:03:44;;;;;;;24.85;10.55;;;;;;;8.05;100.00;96984.88;5063288;28;20056;-59
2022/12/09 04:06:11;;;;;;;24.00;10.10;;;;;;;7.98;100.00;96990.22;5063621;28;20058;-60
2022/12/09 04:08:38;;;;;;;25.48;9.90;;;;;;;7.97;100.00;96989.41;5062152;28;20053;-59
2022/12/09 04:11:05;;;;;;;31.30;11.60;;;;;;;7.94;100.00;96989.31;5063743;28;20140;-59
2022/12/09 04:13:32;;;;;;;33.03;10.63;;;;;;;7.70;100.00;96963.50;5063406;28;20134;-60
2022/12/09 04:15:58;;;;;;;27.70;9.65;;;;;;;7.93;100.00;96993.25;5063299;28;20136;-59
2022/12/09 04:18:26;;;;;;;37.80;10.75;;;;;;;8.01;100.00;96979.28;5063103;28;20886;-60
2022/12/09 04:20:53;;;;;;;40.58;15.45;;;;;;;8.01;100.00;96976.53;5061906;28;20048;-59
2022/12/09 04:23:20;;;;;;;52.85;24.85;;;;;;;8.06;100.00;96969.94;5063327;28;20110;-60
2022/12/09 04:25:47;;;;;;;84.55;49.90;;;;;;;7.64;100.00;96915.31;5063784;28;20075;-59
2022/12/09 04:28:14;;;;;;;54.80;28.33;;;;;;;7.79;100.00;96913.72;5061807;28;20052;-59
2022/12/09 04:30:45;;;;;;;34.20;15.70;;;;;;;8.05;100.00;96940.75;5063499;28;20052;-59
2022/12/09 04:33:12;;;;;;;56.65;19.80;;;;;;;8.12;100.00;96961.06;5063269;28;20075;-59
2022/12/09 04:35:38;;;;;;;33.63;14.68;;;;;;;7.87;100.00;96917.47;5063346;28;20537;-59
2022/12/09 04:38:05;;;;;;;33.42;13.75;;;;;;;8.06;100.00;96969.94;5062986;28;20144;-60
2022/12/09 04:40:32;;;;;;;32.05;12.80;;;;;;;7.87;100.00;96978.13;5063327;28;20156;-60
2022/12/09 04:42:58;;;;;;;41.55;11.90;;;;;;;7.84;100.00;96976.06;5061381;28;20131;-59
2022/12/09 04:45:25;;;;;;;43.60;14.13;;;;;;;7.88;100.00;96963.97;5063198;28;20068;-60
2022/12/09 04:47:52;;;;;;;41.30;12.88;;;;;;;7.83;100.00;96967.00;5063072;28;20080;-60
2022/12/09 04:50:19;;;;;;;41.97;11.60;;;;;;;7.63;100.00;96952.28;5065353;28;20106;-59
2022/12/09 04:52:45;;;;;;;38.80;13.13;;;;;;;7.79;100.00;96962.53;5066549;28;20080;-59
2022/12/09 04:55:13;;;;;;;55.70;18.52;;;;;;;7.76;100.00;96960.50;5066923;28;20505;-59
2022/12/09 04:57:39;;;;;;;39.10;14.02;;;;;;;7.79;100.00;96976.31;5066799;28;20063;-59
2022/12/09 05:00:07;;;;;;;55.58;20.83;;;;;;;7.77;100.00;96962.91;5066603;28;20106;-59
2022/12/09 05:02:35;;;;;;;57.05;16.20;;;;;;;7.51;100.00;96927.56;5066802;28;20056;-60
2022/12/09 05:05:03;;;;;;;201.32;55.90;;;;;;;7.94;100.00;96978.28;5066448;28;20052;-59
2022/12/09 05:07:30;;;;;;;121.72;30.65;;;;;;;7.54;100.00;96937.88;5066511;28;20084;-59
2022/12/09 05:09:57;;;;;;;79.47;21.15;;;;;;;7.73;100.00;96979.34;5066258;28;20063;-59
2022/12/09 05:12:25;;;;;;;68.63;15.98;;;;;;;7.69;100.00;96972.13;5066132;28;20530;-59
2022/12/09 05:14:51;;;;;;;61.92;12.98;;;;;;;7.63;100.00;96974.34;5064836;28;20044;-59
2022/12/09 05:17:18;;;;;;;52.28;12.55;;;;;;;7.17;100.00;96933.72;5065886;28;20053;-59
2022/12/09 05:19:45;;;;;;;56.65;11.40;;;;;;;7.50;100.00;96985.78;5066453;28;20056;-59
2022/12/09 05:22:16;;;;;;;68.68;12.07;;;;;;;7.54;100.00;96981.16;5065629;28;20044;-59
2022/12/09 05:24:43;;;;;;;34.97;9.95;;;;;;;7.52;100.00;96977.97;5066582;28;20060;-60
2022/12/09 05:27:10;;;;;;;71.55;12.10;;;;;;;7.44;100.00;96977.00;5065914;28;20055;-59
2022/12/09 05:29:37;;;;;;;37.03;11.65;;;;;;;6.87;100.00;96880.16;5065594;28;20060;-58
2022/12/09 05:32:04;;;;;;;62.10;19.90;;;;;;;7.58;100.00;96980.13;5065439;28;20551;-58
2022/12/09 05:34:32;;;;;;;93.50;27.88;;;;;;;7.33;100.00;96937.28;5065818;28;20125;-60
2022/12/09 05:36:59;;;;;;;88.38;27.67;;;;;;;7.23;100.00;96915.78;5065784;28;20053;-59
2022/12/09 05:39:26;;;;;;;84.22;27.58;;;;;;;7.54;100.00;96981.16;5065599;28;20087;-59
2022/12/09 05:41:53;;;;;;;49.42;23.30;;;;;;;7.63;100.00;96979.84;5063940;28;20080;-59
2022/12/09 05:44:20;;;;;;;58.72;21.48;;;;;;;7.59;100.00;97028.56;5063900;28;20072;-59
2022/12/09 05:46:47;;;;;;;63.00;16.33;;;;;;;7.79;100.00;96981.84;5064297;28;20132;-60
2022/12/09 05:49:14;;;;;;;30.88;13.80;;;;;;;7.50;100.00;96953.53;5065400;28;20154;-60
2022/12/09 05:51:42;;;;;;;41.67;14.73;;;;;;;7.67;100.00;96980.75;5064083;28;20449;-59
2022/12/09 05:54:09;;;;;;;42.33;13.60;;;;;;;7.68;100.00;96982.34;5065574;28;20075;-60
2022/12/09 05:56:35;;;;;;;48.55;11.77;;;;;;;7.49;100.00;96984.19;5064289;28;20059;-59
2022/12/09 05:59:08;;;;;;;52.72;12.38;;;;;;;7.19;100.00;96941.63;5065705;28;20167;-59
2022/12/09 06:01:35;;;;;;;80.47;12.82;;;;;;;7.41;100.00;96985.94;5064489;28;20057;-59
2022/12/09 06:04:02;;;;;;;48.33;10.60;;;;;;;7.22;100.00;96980.25;5065404;28;20132;-60
2022/12/09 06:06:30;;;;;;;64.57;10.82;;;;;;;7.17;100.00;96985.22;5065321;28;20498;-59
2022/12/09 06:08:59;;;;;;;44.20;11.23;;;;;;;6.86;100.00;96961.09;5063525;28;20048;-60
2022/12/09 06:11:27;;;;;;;27.10;10.20;;;;;;;6.94;100.00;96984.94;5064835;28;20048;-60
2022/12/09 06:13:54;;;;;;;29.63;10.43;;;;;;;6.87;100.00;96962.72;5064997;28;20136;-59
2022/12/09 06:16:21;;;;;;;24.10;10.05;;;;;;;7.12;100.00;96991.81;5064919;28;20052;-61
2022/12/09 06:18:49;;;;;;;23.92;8.60;;;;;;;7.15;100.00;96985.59;5063448;28;20058;-60
2022/12/09 06:21:19;;;;;;;20.52;10.02;;;;;;;7.31;100.00;96993.91;5064712;28;20045;-60
2022/12/09 06:23:47;;;;;;;30.58;15.43;;;;;;;7.37;100.00;96998.81;5064654;28;20049;-59
2022/12/09 06:26:19;;;;;;;29.55;15.57;;;;;;;7.53;100.00;96990.59;5065427;28;20136;-58
2022/12/09 06:28:47;;;;;;;42.95;22.08;;;;;;;7.64;100.00;97014.56;5064704;28;20136;-58
2022/12/09 06:31:15;;;;;;;50.53;25.65;;;;;;;7.72;100.00;97007.25;5064579;28;20092;-59
2022/12/09 06:33:42;;;;;;;29.42;16.85;;;;;;;7.87;100.00;97000.19;5063560;28;20057;-59
2022/12/09 06:36:28;;;;;;;39.58;20.27;;;;;;;7.96;100.00;97014.59;5064280;28;20087;-58
2022/12/09 06:38:57;;;;;;;44.63;22.50;;;;;;;8.04;100.00;97021.91;5064675;28;20088;-58
2022/12/09 06:41:33;;;;;;;38.53;21.60;;;;;;;8.10;100.00;97026.00;5064430;28;20056;-58
2022/12/09 06:44:00;;;;;;;35.25;18.92;;;;;;;8.11;100.00;97008.31;5064450;28;20067;-60
2022/12/09 06:46:27;;;;;;;42.83;22.02;;;;;;;7.52;100.00;96962.22;5064479;28;20075;-61
2022/12/09 06:48:54;;;;;;;57.85;22.27;;;;;;;8.17;100.00;97009.66;5053183;28;20108;-61
2022/12/09 06:51:23;;;;;;;36.08;15.60;;;;;;;8.11;100.00;96986.25;5063665;28;20092;-60
2022/12/09 06:53:51;;;;;;;38.00;17.48;;;;;;;7.79;100.00;96954.28;5063497;28;20048;-62
2022/12/09 06:56:18;;;;;;;44.20;20.27;;;;;;;7.85;100.00;96985.94;5063387;28;20147;-63
2022/12/09 06:58:46;;;;;;;42.08;18.30;;;;;;;7.97;100.00;96985.84;5062713;28;20518;-61
2022/12/09 07:01:21;;;;;;;37.15;17.27;;;;;;;8.23;100.00;97011.81;5063185;28;20516;-60
2022/12/09 07:03:51;;;;;;;45.28;17.95;;;;;;;8.08;100.00;96996.00;5061192;28;20131;-58
2022/12/09 07:06:32;;;;;;;55.13;20.92;;;;;;;8.21;100.00;97018.78;5054081;28;20257;-60
2022/12/09 07:09:03;;;;;;;44.83;19.20;;;;;;;8.22;100.00;97029.47;5062135;28;20537;-62
2022/12/09 07:11:31;;;;;;;94.72;24.33;;;;;;;7.96;100.00;96992.53;5062600;28;20129;-59
2022/12/09 07:13:58;;;;;;;65.53;23.25;;;;;;;8.28;100.00;97005.22;5061073;28;20048;-61
2022/12/09 07:16:25;;;;;;;45.90;19.95;;;;;;;8.38;100.00;97015.72;5061568;28;20048;-61
2022/12/09 07:18:53;;;;;;;42.28;17.65;;;;;;;8.43;100.00;97013.50;5063297;28;20060;-61
2022/12/09 07:21:21;;;;;;;26.90;14.05;;;;;;;8.34;100.00;97014.84;5063148;28;20053;-59
2022/12/09 07:23:49;;;;;;;21.42;11.63;;;;;;;8.40;100.00;97008.69;5061724;28;20058;-62
2022/12/09 07:26:16;;;;;;;25.88;14.85;;;;;;;8.49;100.00;97016.75;5062075;28;20163;-59
2022/12/09 07:28:49;;;;;;;21.77;11.52;;;;;;;8.20;100.00;96975.81;5062774;28;20048;-58
2022/12/09 07:31:26;;;;;;;11.27;6.60;;;;;;;8.60;100.00;97023.38;5063184;28;20113;-61
2022/12/09 07:33:55;;;;;;;14.88;7.03;;;;;;;7.99;100.00;96931.16;5063158;28;20052;-58
2022/12/09 07:36:26;;;;;;;15.30;8.20;;;;;;;8.64;100.00;97018.72;5060736;28;20383;-60
2022/12/09 07:38:55;;;;;;;15.30;9.02;;;;;;;8.75;100.00;97017.81;5062967;28;20052;-57
2022/12/09 07:41:23;;;;;;;15.98;9.35;;;;;;;8.89;100.00;97025.63;5062934;28;20049;-60
2022/12/09 07:43:50;;;;;;;18.63;9.50;;;;;;;9.12;100.00;97018.25;5061888;28;20072;-63
2022/12/09 07:46:19;;;;;;;24.50;12.55;;;;;;;8.76;97.77;96944.03;5061890;28;20049;-60
2022/12/09 07:48:46;;;;;;;31.63;18.90;;;;;;;9.39;96.74;97017.25;5062759;28;20047;-58
2022/12/09 07:51:14;;;;;;;24.65;15.00;;;;;;;9.25;95.49;96967.22;5062581;28;20055;-59
2022/12/09 07:53:41;;;;;;;31.08;17.10;;;;;;;9.40;93.75;96987.66;5061029;28;20177;-60
2022/12/09 07:56:13;;;;;;;31.17;19.17;;;;;;;9.64;92.28;97026.06;5063095;28;20052;-61
2022/12/09 07:58:41;;;;;;;20.45;12.88;;;;;;;7.42;91.98;96731.28;5062906;28;20045;-59
2022/12/09 08:01:17;;;;;;;27.98;14.80;;;;;;;9.01;92.32;96961.97;5061648;28;20527;-58
2022/12/09 08:03:45;;;;;;;31.17;16.83;;;;;;;8.45;97.10;96966.22;5061963;28;20048;-58
2022/12/09 08:06:15;;;;;;;30.98;16.38;;;;;;;8.06;100.00;97019.59;5062641;28;20497;-61
2022/12/09 08:08:42;;;;;;;35.75;18.80;;;;;;;8.45;100.00;96977.25;5059138;28;20132;-63
2022/12/09 08:11:12;;;;;;;33.60;18.92;;;;;;;8.84;100.00;97034.19;5061351;28;20052;-61
2022/12/09 08:13:43;;;;;;;30.20;17.63;;;;;;;8.39;100.00;96978.69;5061710;28;20045;-60
2022/12/09 08:16:12;;;;;;;30.35;17.27;;;;;;;8.43;100.00;97007.16;5063201;28;20045;-61
2022/12/09 08:18:40;;;;;;;34.85;18.27;;;;;;;6.57;100.00;96705.53;5061417;28;20076;-58
2022/12/09 08:21:13;;;;;;;30.42;19.00;;;;;;;8.88;100.00;97035.09;5061816;28;20056;-60
2022/12/09 08:23:41;;;;;;;30.35;17.77;;;;;;;7.55;100.00;96859.56;5063295;28;20173;-62
2022/12/09 08:26:09;;;;;;;32.40;19.90;;;;;;;9.19;100.00;97035.81;5066291;28;20049;-57
2022/12/09 08:28:36;;;;;;;41.30;20.50;;;;;;;9.21;98.38;97032.69;5064809;28;20468;-61
2022/12/09 08:31:09;;;;;;;33.25;18.25;;;;;;;8.91;100.00;97037.94;5063887;28;20056;-60
2022/12/09 08:33:36;;;;;;;34.17;17.75;;;;;;;8.00;100.00;96982.41;5066521;28;20037;-61
2022/12/09 08:36:27;;;;;;;30.30;16.00;;;;;;;8.53;100.00;97039.75;5066489;28;20052;-60
2022/12/09 08:38:56;;;;;;;28.35;15.85;;;;;;;9.08;100.00;97033.97;5065273;28;20053;-61
2022/12/09 08:41:33;;;;;;;24.33;13.65;;;;;;;9.33;100.00;97029.78;5066077;28;20052;-60
2022/12/09 08:44:07;;;;;;;24.67;12.63;;;;;;;8.27;100.00;97003.59;5064259;28;20584;-65
2022/12/09 08:46:37;;;;;;;25.38;13.25;;;;;;;8.40;100.00;97030.78;5065567;28;20442;-62
2022/12/09 08:49:04;;;;;;;24.42;13.93;;;;;;;8.50;100.00;96958.47;5064973;28;20518;-59
2022/12/09 08:51:32;;;;;;;21.83;12.63;;;;;;;7.23;100.00;96722.97;5065154;28;20052;-67
2022/12/09 08:54:00;;;;;;;22.92;12.45;;;;;;;9.23;100.00;97024.03;5065202;28;20088;-57
2022/12/09 08:56:28;;;;;;;25.10;11.95;;;;;;;9.02;100.00;97021.59;5064044;28;20172;-57
2022/12/09 08:58:55;;;;;;;27.58;13.05;;;;;;;8.75;100.00;96964.56;5065294;28;20287;-60
2022/12/09 09:01:25;;;;;;;23.80;12.20;;;;;;;8.96;100.00;97010.00;5063886;28;20064;-61
2022/12/09 09:03:52;;;;;;;23.35;12.55;;;;;;;8.95;100.00;97008.41;5063818;28;20064;-61
2022/12/09 09:06:20;;;;;;;26.15;13.00;;;;;;;8.59;100.00;96911.31;5064478;28;20044;-63
2022/12/09 09:08:47;;;;;;;24.80;12.57;;;;;;;9.25;100.00;97000.38;5065797;28;20513;-62
2022/12/09 09:11:17;;;;;;;42.95;19.08;;;;;;;9.42;99.53;96994.41;5064061;28;20238;-60
2022/12/09 09:13:52;;;;;;;23.52;14.02;;;;;;;9.60;98.55;97012.19;5065888;28;20056;-58
2022/12/09 09:16:22;;;;;;;35.47;18.88;;;;;;;9.07;97.92;96913.56;5065659;28;20132;-59
2022/12/09 09:18:49;;;;;;;27.65;13.38;;;;;;;9.71;96.10;96985.53;5064782;28;20052;-60
2022/12/09 09:21:22;;;;;;;20.27;12.13;;;;;;;9.85;96.48;97004.34;5063954;28;20497;-60
2022/12/09 09:23:49;;;;;;;26.83;14.90;;;;;;;9.70;96.73;96989.47;5065021;28;20079;-70
2022/12/09 09:26:19;;;;;;;23.83;12.07;;;;;;;9.30;98.88;96985.47;5065038;28;20071;-61
2022/12/09 09:28:47;;;;;;;21.38;12.30;;;;;;;8.79;100.00;96990.28;5063853;28;20482;-60
2022/12/09 09:31:17;;;;;;;21.23;11.57;;;;;;;8.96;100.00;96970.56;5064970;28;20094;-58
2022/12/09 09:33:45;;;;;;;20.02;11.60;;;;;;;8.58;100.00;96934.59;5064670;28;20052;-61
2022/12/09 09:36:16;;;;;;;20.63;11.05;;;;;;;8.44;100.00;96970.13;5063024;28;20046;-62
2022/12/09 09:38:43;;;;;;;18.58;10.45;;;;;;;8.13;100.00;96954.38;5065132;28;20048;-58
2022/12/09 09:41:19;;;;;;;19.10;11.48;;;;;;;8.54;100.00;96969.56;5063809;28;20047;-61
2022/12/09 09:43:46;;;;;;;21.48;11.20;;;;;;;8.54;100.00;96915.16;5062783;28;20522;-58
2022/12/09 09:46:28;;;;;;;20.40;10.80;;;;;;;8.68;100.00;96864.97;5062992;28;20048;-60
2022/12/09 09:48:59;;;;;;;18.05;10.43;;;;;;;9.75;100.00;96944.13;5043471;28;20061;-63
2022/12/09 09:51:27;;;;;;;17.95;10.82;;;;;;;9.79;99.87;96931.13;5051243;28;20482;-63
2022/12/09 09:53:54;;;;;;;16.60;11.02;;;;;;;9.78;99.74;96962.75;5062816;28;20430;-63
2022/12/09 09:56:44;;;;;;;23.17;12.25;;;;;;;10.24;99.64;96945.78;5064766;28;20060;-62
2022/12/09 09:59:31;;;;;;;18.63;11.13;;;;;;;10.55;96.71;96937.22;5064979;28;20067;-62
2022/12/09 10:02:26;;;;;;;17.70;10.88;;;;;;;10.80;95.24;96932.03;5064670;28;20049;-63
2022/12/09 10:05:30;;;;;;;23.23;11.95;;;;;;;10.72;93.96;96935.09;5063282;28;20507;-62
2022/12/09 10:08:34;;;;;;;21.20;11.57;;;;;;;11.03;91.72;96918.91;5063053;28;20052;-59
2022/12/09 10:11:37;;;;;;;16.27;10.02;;;;;;;11.01;91.34;96910.16;5064738;28;20048;-61
2022/12/09 10:14:05;;;;;;;13.32;8.80;;;;;;;10.96;94.35;96912.44;4966145;28;20137;-60
2022/12/09 10:17:29;;;;;;;15.88;10.13;;;;;;;11.26;91.32;96913.22;5049325;28;20091;-61
2022/12/09 10:20:21;;;;;;;16.05;7.72;;;;;;;11.28;91.67;96908.91;4990669;28;20526;-62
2022/12/09 10:23:02;;;;;;;17.13;7.85;;;;;;;11.49;89.44;96908.38;4985953;28;20046;-60
2022/12/09 10:25:36;;;;;;;9.73;6.80;;;;;;;11.13;89.85;96901.59;5056023;28;20131;-63
2022/12/09 10:28:05;;;;;;;10.25;7.03;;;;;;;11.29;90.49;96893.88;5064136;28;20126;-61
2022/12/09 10:30:32;;;;;;;12.98;7.13;;;;;;;10.84;91.26;96876.66;5064694;28;20136;-59
2022/12/09 10:33:12;;;;;;;17.17;7.93;;;;;;;11.35;92.37;96880.47;5064761;28;20128;-60
2022/12/09 10:35:39;;;;;;;13.85;7.55;;;;;;;11.60;89.85;96881.53;5055683;28;20083;-61
2022/12/09 10:38:13;;;;;;;15.23;7.40;;;;;;;11.79;88.32;96886.91;5064755;28;20215;-60
2022/12/09 10:40:47;;;;;;;11.35;7.45;;;;;;;12.02;87.91;96874.44;5062816;28;20048;-65
2022/12/09 10:43:37;;;;;;;13.00;6.90;;;;;;;12.26;86.45;96869.47;5062175;28;20102;-64
2022/12/09 10:46:20;;;;;;;14.05;7.88;;;;;;;10.31;86.06;96544.50;5064437;28;20052;-61
2022/12/09 10:48:48;;;;;;;;;;;;;;;12.57;85.57;96853.00;5063210;28;20053;-58
2022/12/09 10:51:43;;;;;;;14.27;7.57;;;;;;;12.02;85.46;96759.81;5061708;28;20464;-61
2022/12/09 10:54:10;;;;;;;14.73;7.82;;;;;;;12.76;83.65;96861.06;5063783;28;20059;-60
2022/12/09 10:57:05;;;;;;;21.67;11.30;;;;;;;12.89;82.78;96854.00;5063501;28;20167;-63
2022/12/09 10:59:34;;;;;;;19.17;9.43;;;;;;;13.09;82.38;96841.38;5063990;28;20056;-60
2022/12/09 11:02:17;;;;;;;16.65;9.57;;;;;;;13.31;81.86;96834.72;5062062;28;20435;-61
2022/12/09 11:04:45;;;;;;;19.60;8.77;;;;;;;13.28;80.53;96798.53;5063648;28;20056;-59
2022/12/09 11:07:16;;;;;;;21.30;9.45;;;;;;;13.77;80.18;96837.59;5061994;28;20059;-61
2022/12/09 11:09:47;;;;;;;17.63;10.30;;;;;;;13.94;77.67;96827.66;5063580;28;20055;-62
2022/12/09 11:12:30;;;;;;;16.10;10.32;;;;;;;14.08;78.44;96830.44;5063184;28;20446;-64
2022/12/09 11:15:37;;;;;;;21.88;9.90;;;;;;;13.99;76.10;96824.50;5062497;28;20066;-59
2022/12/09 11:18:22;;;;;;;12.15;8.15;;;;;;;13.78;76.58;96816.13;5061940;28;20079;-62
2022/12/09 11:20:58;;;;;;;16.00;7.18;;;;;;;12.58;80.78;96837.16;5046877;28;20045;-60
2022/12/09 11:23:26;;;;;;;19.75;7.18;;;;;;;12.68;81.29;96825.28;5043104;28;20538;-61
2022/12/09 11:25:55;;;;;;;14.25;6.50;;;;;;;12.76;80.87;96816.59;5041904;28;20655;-62
2022/12/09 11:28:25;;;;;;;24.05;9.02;;;;;;;12.51;82.51;96821.22;5041984;28;20060;-62
2022/12/09 11:31:12;;;;;;;22.85;6.68;;;;;;;12.83;81.85;96804.72;5044722;28;20072;-63
2022/12/09 11:34:02;;;;;;;20.77;6.55;;;;;;;12.69;81.53;96821.31;5063408;28;20052;-63
2022/12/09 11:36:36;;;;;;;16.77;6.05;;;;;;;12.63;81.09;96818.09;5063401;28;20462;-62
2022/12/09 11:39:23;;;;;;;34.25;17.55;;;;;;;12.82;81.02;96803.91;5063367;28;20076;-61